sensor_id;sensor_type;location;lat;lon;timestamp;P1;durP1;ratioP1;P2;durP2;ratioP2
54157;SDS011;40065;49.894;10.358;2023-08-01T00:00:39;11.88;;;4.88;;
54157;SDS011;40065;49.894;10.358;2023-08-01T00:05:41;9.45;;;4.53;;
54157;SDS011;40065;49.894;10.358;2023-08-01T00:10:46;11.65;;;4.70;;
54157;SDS011;40065;49.894;10.358;2023-08-01T00:15:48;8.50;;;4.28;;
54157;SDS011;40065;49.894;10.358;2023-08-01T00:21:07;8.30;;;4.40;;
54157;SDS011;40065;49.894;10.358;2023-08-01T00:26:12;9.55;;;4.25;;
54157;SDS011;40065;49.894;10.358;2023-08-01T00:31:14;13.70;;;4.75;;
54157;SDS011;40065;49.894;10.358;2023-08-01T00:36:16;9.75;;;4.45;;
54157;SDS011;40065;49.894;10.358;2023-08-01T00:41:18;10.93;;;4.65;;
54157;SDS011;40065;49.894;10.358;2023-08-01T00:46:20;8.60;;;4.25;;
54157;SDS011;40065;49.894;10.358;2023-08-01T00:51:22;10.35;;;4.40;;
54157;SDS011;40065;49.894;10.358;2023-08-01T00:56:25;9.50;;;4.40;;
54157;SDS011;40065;49.894;10.358;2023-08-01T01:01:27;8.23;;;4.20;;
54157;SDS011;40065;49.894;10.358;2023-08-01T01:06:41;7.47;;;4.32;;
54157;SDS011;40065;49.894;10.358;2023-08-01T01:11:49;9.23;;;4.53;;
54157;SDS011;40065;49.894;10.358;2023-08-01T01:16:51;8.60;;;4.40;;
54157;SDS011;40065;49.894;10.358;2023-08-01T01:21:53;8.80;;;4.80;;
54157;SDS011;40065;49.894;10.358;2023-08-01T01:26:57;12.77;;;5.10;;
54157;SDS011;40065;49.894;10.358;2023-08-01T01:32:01;8.55;;;4.75;;
54157;SDS011;40065;49.894;10.358;2023-08-01T01:37:03;8.30;;;4.78;;
54157;SDS011;40065;49.894;10.358;2023-08-01T01:42:06;10.85;;;5.20;;
54157;SDS011;40065;49.894;10.358;2023-08-01T01:47:09;10.38;;;4.72;;
54157;SDS011;40065;49.894;10.358;2023-08-01T01:52:11;14.48;;;4.90;;
54157;SDS011;40065;49.894;10.358;2023-08-01T01:57:12;11.88;;;4.68;;
54157;SDS011;40065;49.894;10.358;2023-08-01T02:02:15;11.88;;;4.53;;
54157;SDS011;40065;49.894;10.358;2023-08-01T02:07:17;14.68;;;4.90;;
54157;SDS011;40065;49.894;10.358;2023-08-01T02:12:18;10.82;;;5.28;;
54157;SDS011;40065;49.894;10.358;2023-08-01T02:17:20;9.20;;;5.10;;
54157;SDS011;40065;49.894;10.358;2023-08-01T02:22:24;10.95;;;5.18;;
54157;SDS011;40065;49.894;10.358;2023-08-01T02:27:26;12.05;;;5.18;;
54157;SDS011;40065;49.894;10.358;2023-08-01T02:32:28;11.90;;;5.15;;
54157;SDS011;40065;49.894;10.358;2023-08-01T02:37:32;10.68;;;5.57;;
54157;SDS011;40065;49.894;10.358;2023-08-01T02:42:34;9.57;;;5.07;;
54157;SDS011;40065;49.894;10.358;2023-08-01T02:47:36;11.23;;;5.13;;
54157;SDS011;40065;49.894;10.358;2023-08-01T02:52:38;11.05;;;5.35;;
54157;SDS011;40065;49.894;10.358;2023-08-01T02:57:40;13.07;;;5.18;;
54157;SDS011;40065;49.894;10.358;2023-08-01T03:02:42;9.52;;;4.97;;
54157;SDS011;40065;49.894;10.358;2023-08-01T03:07:44;12.38;;;5.43;;
54157;SDS011;40065;49.894;10.358;2023-08-01T03:12:46;10.70;;;5.53;;
54157;SDS011;40065;49.894;10.358;2023-08-01T03:17:47;13.98;;;5.75;;
54157;SDS011;40065;49.894;10.358;2023-08-01T03:22:49;9.30;;;5.20;;
54157;SDS011;40065;49.894;10.358;2023-08-01T03:27:51;11.20;;;5.30;;
54157;SDS011;40065;49.894;10.358;2023-08-01T03:32:53;11.43;;;5.22;;
54157;SDS011;40065;49.894;10.358;2023-08-01T03:37:55;11.82;;;4.85;;
54157;SDS011;40065;49.894;10.358;2023-08-01T03:42:57;12.75;;;5.05;;
54157;SDS011;40065;49.894;10.358;2023-08-01T03:47:59;8.82;;;4.93;;
54157;SDS011;40065;49.894;10.358;2023-08-01T03:53:01;9.88;;;4.95;;
54157;SDS011;40065;49.894;10.358;2023-08-01T03:58:03;9.88;;;4.32;;
54157;SDS011;40065;49.894;10.358;2023-08-01T04:03:05;10.10;;;4.53;;
54157;SDS011;40065;49.894;10.358;2023-08-01T04:08:07;9.80;;;4.60;;
54157;SDS011;40065;49.894;10.358;2023-08-01T04:13:09;7.85;;;4.28;;
54157;SDS011;40065;49.894;10.358;2023-08-01T04:18:11;10.65;;;4.32;;
54157;SDS011;40065;49.894;10.358;2023-08-01T04:23:13;11.20;;;5.13;;
54157;SDS011;40065;49.894;10.358;2023-08-01T04:28:15;10.77;;;4.88;;
54157;SDS011;40065;49.894;10.358;2023-08-01T04:33:17;10.10;;;4.82;;
54157;SDS011;40065;49.894;10.358;2023-08-01T04:38:19;11.00;;;4.80;;
54157;SDS011;40065;49.894;10.358;2023-08-01T04:43:21;8.05;;;4.38;;
54157;SDS011;40065;49.894;10.358;2023-08-01T04:48:23;8.13;;;4.60;;
54157;SDS011;40065;49.894;10.358;2023-08-01T04:53:25;7.65;;;4.35;;
54157;SDS011;40065;49.894;10.358;2023-08-01T04:58:27;9.57;;;5.13;;
54157;SDS011;40065;49.894;10.358;2023-08-01T05:03:29;9.50;;;4.25;;
54157;SDS011;40065;49.894;10.358;2023-08-01T05:08:31;7.97;;;4.10;;
54157;SDS011;40065;49.894;10.358;2023-08-01T05:13:33;6.93;;;4.07;;
54157;SDS011;40065;49.894;10.358;2023-08-01T05:18:35;11.15;;;4.22;;
54157;SDS011;40065;49.894;10.358;2023-08-01T05:23:37;7.30;;;4.30;;
54157;SDS011;40065;49.894;10.358;2023-08-01T05:28:38;8.65;;;3.92;;
54157;SDS011;40065;49.894;10.358;2023-08-01T05:33:40;9.52;;;4.53;;
54157;SDS011;40065;49.894;10.358;2023-08-01T05:38:42;8.57;;;3.97;;
54157;SDS011;40065;49.894;10.358;2023-08-01T05:43:44;9.07;;;4.05;;
54157;SDS011;40065;49.894;10.358;2023-08-01T05:48:48;6.38;;;3.60;;
54157;SDS011;40065;49.894;10.358;2023-08-01T05:53:50;7.82;;;3.90;;
54157;SDS011;40065;49.894;10.358;2023-08-01T05:58:52;10.52;;;4.57;;
54157;SDS011;40065;49.894;10.358;2023-08-01T06:03:54;6.60;;;4.00;;
54157;SDS011;40065;49.894;10.358;2023-08-01T06:08:56;8.48;;;3.72;;
54157;SDS011;40065;49.894;10.358;2023-08-01T06:13:58;8.10;;;4.00;;
54157;SDS011;40065;49.894;10.358;2023-08-01T06:19:00;8.63;;;3.88;;
54157;SDS011;40065;49.894;10.358;2023-08-01T06:24:03;6.90;;;4.00;;
54157;SDS011;40065;49.894;10.358;2023-08-01T06:29:05;13.13;;;4.10;;
54157;SDS011;40065;49.894;10.358;2023-08-01T06:34:07;7.65;;;4.03;;
54157;SDS011;40065;49.894;10.358;2023-08-01T06:39:09;7.55;;;4.45;;
54157;SDS011;40065;49.894;10.358;2023-08-01T06:44:11;9.18;;;4.78;;
54157;SDS011;40065;49.894;10.358;2023-08-01T06:49:13;8.98;;;4.78;;
54157;SDS011;40065;49.894;10.358;2023-08-01T06:54:15;9.07;;;4.40;;
54157;SDS011;40065;49.894;10.358;2023-08-01T06:59:17;8.13;;;4.50;;
54157;SDS011;40065;49.894;10.358;2023-08-01T07:04:19;9.70;;;4.55;;
54157;SDS011;40065;49.894;10.358;2023-08-01T07:09:21;7.05;;;3.63;;
54157;SDS011;40065;49.894;10.358;2023-08-01T07:14:23;5.32;;;3.30;;
54157;SDS011;40065;49.894;10.358;2023-08-01T07:19:25;7.07;;;3.15;;
54157;SDS011;40065;49.894;10.358;2023-08-01T07:24:27;6.55;;;3.17;;
54157;SDS011;40065;49.894;10.358;2023-08-01T07:29:29;5.95;;;3.60;;
54157;SDS011;40065;49.894;10.358;2023-08-01T07:34:31;7.50;;;3.63;;
54157;SDS011;40065;49.894;10.358;2023-08-01T07:39:33;6.40;;;3.78;;
54157;SDS011;40065;49.894;10.358;2023-08-01T07:44:36;7.32;;;3.65;;
54157;SDS011;40065;49.894;10.358;2023-08-01T07:49:38;8.02;;;3.67;;
54157;SDS011;40065;49.894;10.358;2023-08-01T07:54:40;7.18;;;3.30;;
54157;SDS011;40065;49.894;10.358;2023-08-01T07:59:42;5.53;;;3.50;;
54157;SDS011;40065;49.894;10.358;2023-08-01T08:04:44;7.47;;;3.67;;
54157;SDS011;40065;49.894;10.358;2023-08-01T08:09:46;7.65;;;4.00;;
54157;SDS011;40065;49.894;10.358;2023-08-01T08:14:48;7.50;;;3.60;;
54157;SDS011;40065;49.894;10.358;2023-08-01T08:19:50;6.75;;;3.65;;
54157;SDS011;40065;49.894;10.358;2023-08-01T08:24:51;8.20;;;3.45;;
54157;SDS011;40065;49.894;10.358;2023-08-01T08:29:53;6.05;;;3.15;;
54157;SDS011;40065;49.894;10.358;2023-08-01T08:34:56;5.50;;;3.15;;
54157;SDS011;40065;49.894;10.358;2023-08-01T08:39:58;5.90;;;3.08;;
54157;SDS011;40065;49.894;10.358;2023-08-01T08:45:00;6.40;;;2.95;;
54157;SDS011;40065;49.894;10.358;2023-08-01T08:50:03;4.72;;;2.60;;
54157;SDS011;40065;49.894;10.358;2023-08-01T08:55:06;3.47;;;2.10;;
54157;SDS011;40065;49.894;10.358;2023-08-01T09:00:08;3.92;;;2.08;;
54157;SDS011;40065;49.894;10.358;2023-08-01T09:05:12;3.38;;;2.00;;
54157;SDS011;40065;49.894;10.358;2023-08-01T09:10:14;4.53;;;1.88;;
54157;SDS011;40065;49.894;10.358;2023-08-01T09:15:16;2.72;;;1.63;;
54157;SDS011;40065;49.894;10.358;2023-08-01T09:20:18;3.50;;;2.10;;
54157;SDS011;40065;49.894;10.358;2023-08-01T09:25:30;4.03;;;1.88;;
54157;SDS011;40065;49.894;10.358;2023-08-01T09:30:33;3.03;;;1.70;;
54157;SDS011;40065;49.894;10.358;2023-08-01T09:35:38;13.50;;;1.30;;
54157;SDS011;40065;49.894;10.358;2023-08-01T09:40:41;4.93;;;1.00;;
54157;SDS011;40065;49.894;10.358;2023-08-01T09:45:50;4.38;;;1.00;;
54157;SDS011;40065;49.894;10.358;2023-08-01T09:56:11;4.28;;;1.08;;
54157;SDS011;40065;49.894;10.358;2023-08-01T10:01:19;2.00;;;1.08;;
54157;SDS011;40065;49.894;10.358;2023-08-01T10:06:23;2.55;;;0.82;;
54157;SDS011;40065;49.894;10.358;2023-08-01T10:11:30;2.80;;;0.98;;
54157;SDS011;40065;49.894;10.358;2023-08-01T10:16:35;1.67;;;0.90;;
54157;SDS011;40065;49.894;10.358;2023-08-01T10:21:38;2.65;;;1.02;;
54157;SDS011;40065;49.894;10.358;2023-08-01T10:26:40;4.30;;;0.90;;
54157;SDS011;40065;49.894;10.358;2023-08-01T10:31:51;2.97;;;1.02;;
54157;SDS011;40065;49.894;10.358;2023-08-01T10:36:57;4.85;;;1.20;;
54157;SDS011;40065;49.894;10.358;2023-08-01T10:42:03;3.33;;;1.00;;
54157;SDS011;40065;49.894;10.358;2023-08-01T10:47:07;2.28;;;0.90;;
54157;SDS011;40065;49.894;10.358;2023-08-01T10:57:20;2.40;;;1.10;;
54157;SDS011;40065;49.894;10.358;2023-08-01T11:02:23;1.83;;;0.90;;
54157;SDS011;40065;49.894;10.358;2023-08-01T11:07:27;2.38;;;1.02;;
54157;SDS011;40065;49.894;10.358;2023-08-01T11:12:29;2.92;;;0.95;;
54157;SDS011;40065;49.894;10.358;2023-08-01T11:17:35;2.58;;;1.20;;
54157;SDS011;40065;49.894;10.358;2023-08-01T11:22:48;1.45;;;0.70;;
54157;SDS011;40065;49.894;10.358;2023-08-01T11:27:53;1.38;;;0.80;;
54157;SDS011;40065;49.894;10.358;2023-08-01T11:32:54;1.65;;;0.70;;
54157;SDS011;40065;49.894;10.358;2023-08-01T11:37:56;1.60;;;0.77;;
54157;SDS011;40065;49.894;10.358;2023-08-01T11:42:59;2.35;;;0.70;;
54157;SDS011;40065;49.894;10.358;2023-08-01T11:48:01;1.00;;;0.55;;
54157;SDS011;40065;49.894;10.358;2023-08-01T11:53:03;2.22;;;0.90;;
54157;SDS011;40065;49.894;10.358;2023-08-01T11:58:06;1.83;;;0.75;;
54157;SDS011;40065;49.894;10.358;2023-08-01T12:03:08;2.47;;;0.80;;
54157;SDS011;40065;49.894;10.358;2023-08-01T12:08:15;2.13;;;0.85;;
54157;SDS011;40065;49.894;10.358;2023-08-01T12:13:21;1.30;;;0.80;;
54157;SDS011;40065;49.894;10.358;2023-08-01T12:18:24;1.35;;;0.60;;
54157;SDS011;40065;49.894;10.358;2023-08-01T12:23:50;2.20;;;0.80;;
54157;SDS011;40065;49.894;10.358;2023-08-01T12:28:52;2.10;;;0.80;;
54157;SDS011;40065;49.894;10.358;2023-08-01T12:33:54;1.48;;;0.90;;
54157;SDS011;40065;49.894;10.358;2023-08-01T12:38:56;1.58;;;0.75;;
54157;SDS011;40065;49.894;10.358;2023-08-01T12:43:58;1.23;;;0.60;;
54157;SDS011;40065;49.894;10.358;2023-08-01T12:49:00;2.13;;;0.75;;
54157;SDS011;40065;49.894;10.358;2023-08-01T12:54:02;1.25;;;0.45;;
54157;SDS011;40065;49.894;10.358;2023-08-01T12:59:04;2.58;;;0.60;;
54157;SDS011;40065;49.894;10.358;2023-08-01T13:04:06;1.00;;;0.50;;
54157;SDS011;40065;49.894;10.358;2023-08-01T13:09:08;1.40;;;0.60;;
54157;SDS011;40065;49.894;10.358;2023-08-01T13:14:10;1.45;;;0.68;;
54157;SDS011;40065;49.894;10.358;2023-08-01T13:19:11;1.80;;;0.70;;
54157;SDS011;40065;49.894;10.358;2023-08-01T13:24:13;2.20;;;0.68;;
54157;SDS011;40065;49.894;10.358;2023-08-01T13:29:15;4.97;;;0.75;;
54157;SDS011;40065;49.894;10.358;2023-08-01T13:34:17;2.45;;;0.70;;
54157;SDS011;40065;49.894;10.358;2023-08-01T13:39:19;1.35;;;0.50;;
54157;SDS011;40065;49.894;10.358;2023-08-01T13:44:21;2.10;;;0.90;;
54157;SDS011;40065;49.894;10.358;2023-08-01T13:49:23;1.20;;;0.70;;
54157;SDS011;40065;49.894;10.358;2023-08-01T13:54:25;1.30;;;0.70;;
54157;SDS011;40065;49.894;10.358;2023-08-01T13:59:27;1.77;;;0.82;;
54157;SDS011;40065;49.894;10.358;2023-08-01T14:04:29;1.73;;;0.70;;
54157;SDS011;40065;49.894;10.358;2023-08-01T14:09:31;2.55;;;1.05;;
54157;SDS011;40065;49.894;10.358;2023-08-01T14:14:33;2.85;;;1.00;;
54157;SDS011;40065;49.894;10.358;2023-08-01T14:19:35;2.30;;;0.80;;
54157;SDS011;40065;49.894;10.358;2023-08-01T14:24:37;2.03;;;0.90;;
54157;SDS011;40065;49.894;10.358;2023-08-01T14:29:39;1.35;;;0.85;;
54157;SDS011;40065;49.894;10.358;2023-08-01T14:34:42;2.53;;;0.80;;
54157;SDS011;40065;49.894;10.358;2023-08-01T14:39:44;2.55;;;1.02;;
54157;SDS011;40065;49.894;10.358;2023-08-01T14:44:50;2.75;;;1.00;;
54157;SDS011;40065;49.894;10.358;2023-08-01T14:49:56;6.03;;;1.02;;
54157;SDS011;40065;49.894;10.358;2023-08-01T14:54:58;4.30;;;1.02;;
54157;SDS011;40065;49.894;10.358;2023-08-01T14:59:59;2.08;;;0.95;;
54157;SDS011;40065;49.894;10.358;2023-08-01T15:05:01;2.38;;;1.00;;
54157;SDS011;40065;49.894;10.358;2023-08-01T15:10:03;3.10;;;0.88;;
54157;SDS011;40065;49.894;10.358;2023-08-01T15:15:06;1.95;;;1.05;;
54157;SDS011;40065;49.894;10.358;2023-08-01T15:20:09;4.43;;;1.10;;
54157;SDS011;40065;49.894;10.358;2023-08-01T15:25:11;2.30;;;1.13;;
54157;SDS011;40065;49.894;10.358;2023-08-01T15:30:13;2.88;;;0.93;;
54157;SDS011;40065;49.894;10.358;2023-08-01T15:35:16;2.35;;;1.00;;
54157;SDS011;40065;49.894;10.358;2023-08-01T15:40:18;2.17;;;0.93;;
54157;SDS011;40065;49.894;10.358;2023-08-01T15:45:19;2.25;;;1.00;;
54157;SDS011;40065;49.894;10.358;2023-08-01T15:50:21;2.38;;;1.00;;
54157;SDS011;40065;49.894;10.358;2023-08-01T15:55:23;2.60;;;1.00;;
54157;SDS011;40065;49.894;10.358;2023-08-01T16:00:25;2.65;;;0.80;;
54157;SDS011;40065;49.894;10.358;2023-08-01T16:05:27;4.47;;;0.93;;
54157;SDS011;40065;49.894;10.358;2023-08-01T16:10:29;4.90;;;1.10;;
54157;SDS011;40065;49.894;10.358;2023-08-01T16:15:31;3.00;;;0.98;;
54157;SDS011;40065;49.894;10.358;2023-08-01T16:20:33;3.33;;;1.15;;
54157;SDS011;40065;49.894;10.358;2023-08-01T16:25:35;2.20;;;0.95;;
54157;SDS011;40065;49.894;10.358;2023-08-01T16:30:37;3.42;;;0.85;;
54157;SDS011;40065;49.894;10.358;2023-08-01T16:35:39;3.22;;;0.90;;
54157;SDS011;40065;49.894;10.358;2023-08-01T16:40:41;4.35;;;1.00;;
54157;SDS011;40065;49.894;10.358;2023-08-01T16:45:42;3.70;;;1.23;;
54157;SDS011;40065;49.894;10.358;2023-08-01T16:50:45;1.52;;;0.70;;
54157;SDS011;40065;49.894;10.358;2023-08-01T16:55:46;1.08;;;0.40;;
54157;SDS011;40065;49.894;10.358;2023-08-01T17:00:51;0.93;;;0.47;;
54157;SDS011;40065;49.894;10.358;2023-08-01T17:05:53;1.20;;;0.55;;
54157;SDS011;40065;49.894;10.358;2023-08-01T17:10:55;1.38;;;0.60;;
54157;SDS011;40065;49.894;10.358;2023-08-01T17:15:57;2.47;;;0.80;;
54157;SDS011;40065;49.894;10.358;2023-08-01T17:20:59;1.40;;;0.70;;
54157;SDS011;40065;49.894;10.358;2023-08-01T17:26:02;1.63;;;0.63;;
54157;SDS011;40065;49.894;10.358;2023-08-01T17:31:05;3.17;;;0.80;;
54157;SDS011;40065;49.894;10.358;2023-08-01T17:36:07;2.80;;;0.90;;
54157;SDS011;40065;49.894;10.358;2023-08-01T17:41:15;2.85;;;1.05;;
54157;SDS011;40065;49.894;10.358;2023-08-01T17:46:18;3.60;;;1.20;;
54157;SDS011;40065;49.894;10.358;2023-08-01T17:51:23;2.22;;;1.17;;
54157;SDS011;40065;49.894;10.358;2023-08-01T17:56:25;3.13;;;1.10;;
54157;SDS011;40065;49.894;10.358;2023-08-01T18:01:27;2.75;;;0.95;;
54157;SDS011;40065;49.894;10.358;2023-08-01T18:06:30;3.50;;;1.23;;
54157;SDS011;40065;49.894;10.358;2023-08-01T18:11:32;2.42;;;1.05;;
54157;SDS011;40065;49.894;10.358;2023-08-01T18:16:34;3.50;;;1.08;;
54157;SDS011;40065;49.894;10.358;2023-08-01T18:21:36;4.90;;;1.33;;
54157;SDS011;40065;49.894;10.358;2023-08-01T18:26:38;4.03;;;1.17;;
54157;SDS011;40065;49.894;10.358;2023-08-01T18:31:40;4.88;;;1.58;;
54157;SDS011;40065;49.894;10.358;2023-08-01T18:36:42;4.07;;;1.50;;
54157;SDS011;40065;49.894;10.358;2023-08-01T18:41:44;2.90;;;1.13;;
54157;SDS011;40065;49.894;10.358;2023-08-01T18:46:46;5.53;;;1.55;;
54157;SDS011;40065;49.894;10.358;2023-08-01T18:51:50;2.20;;;1.05;;
54157;SDS011;40065;49.894;10.358;2023-08-01T18:56:51;4.75;;;1.30;;
54157;SDS011;40065;49.894;10.358;2023-08-01T19:01:53;2.72;;;1.10;;
54157;SDS011;40065;49.894;10.358;2023-08-01T19:06:55;2.42;;;1.35;;
54157;SDS011;40065;49.894;10.358;2023-08-01T19:12:02;2.20;;;1.27;;
54157;SDS011;40065;49.894;10.358;2023-08-01T19:17:08;4.95;;;1.42;;
54157;SDS011;40065;49.894;10.358;2023-08-01T19:22:10;2.28;;;1.15;;
54157;SDS011;40065;49.894;10.358;2023-08-01T19:27:12;2.35;;;1.08;;
54157;SDS011;40065;49.894;10.358;2023-08-01T19:32:14;3.17;;;1.30;;
54157;SDS011;40065;49.894;10.358;2023-08-01T19:37:17;2.70;;;1.27;;
54157;SDS011;40065;49.894;10.358;2023-08-01T19:42:20;3.90;;;1.10;;
54157;SDS011;40065;49.894;10.358;2023-08-01T19:47:21;3.85;;;1.48;;
54157;SDS011;40065;49.894;10.358;2023-08-01T19:52:23;3.10;;;1.00;;
54157;SDS011;40065;49.894;10.358;2023-08-01T19:57:25;3.47;;;1.10;;
54157;SDS011;40065;49.894;10.358;2023-08-01T20:02:27;5.90;;;1.23;;
54157;SDS011;40065;49.894;10.358;2023-08-01T20:07:29;3.10;;;0.98;;
54157;SDS011;40065;49.894;10.358;2023-08-01T20:12:33;3.50;;;0.90;;
54157;SDS011;40065;49.894;10.358;2023-08-01T20:17:35;3.13;;;1.00;;
54157;SDS011;40065;49.894;10.358;2023-08-01T20:22:37;2.67;;;0.90;;
54157;SDS011;40065;49.894;10.358;2023-08-01T20:27:39;1.88;;;0.90;;
54157;SDS011;40065;49.894;10.358;2023-08-01T20:32:41;3.95;;;1.52;;
54157;SDS011;40065;49.894;10.358;2023-08-01T20:37:42;4.47;;;1.25;;
54157;SDS011;40065;49.894;10.358;2023-08-01T20:42:44;3.22;;;1.20;;
54157;SDS011;40065;49.894;10.358;2023-08-01T20:47:48;3.63;;;1.35;;
54157;SDS011;40065;49.894;10.358;2023-08-01T20:52:50;2.63;;;1.38;;
54157;SDS011;40065;49.894;10.358;2023-08-01T20:57:52;4.82;;;1.40;;
54157;SDS011;40065;49.894;10.358;2023-08-01T21:02:54;3.35;;;1.58;;
54157;SDS011;40065;49.894;10.358;2023-08-01T21:07:56;4.13;;;1.60;;
54157;SDS011;40065;49.894;10.358;2023-08-01T21:12:58;3.17;;;1.75;;
54157;SDS011;40065;49.894;10.358;2023-08-01T21:17:59;2.83;;;1.20;;
54157;SDS011;40065;49.894;10.358;2023-08-01T21:23:02;4.35;;;1.42;;
54157;SDS011;40065;49.894;10.358;2023-08-01T21:28:04;4.70;;;1.85;;
54157;SDS011;40065;49.894;10.358;2023-08-01T21:33:06;4.72;;;1.50;;
54157;SDS011;40065;49.894;10.358;2023-08-01T21:38:08;5.80;;;1.77;;
54157;SDS011;40065;49.894;10.358;2023-08-01T21:43:10;4.20;;;1.83;;
54157;SDS011;40065;49.894;10.358;2023-08-01T21:48:12;4.85;;;2.10;;
54157;SDS011;40065;49.894;10.358;2023-08-01T21:53:13;3.63;;;1.77;;
54157;SDS011;40065;49.894;10.358;2023-08-01T21:58:15;4.30;;;1.90;;
54157;SDS011;40065;49.894;10.358;2023-08-01T22:03:17;5.68;;;1.70;;
54157;SDS011;40065;49.894;10.358;2023-08-01T22:08:19;3.33;;;1.60;;
54157;SDS011;40065;49.894;10.358;2023-08-01T22:13:21;6.13;;;1.85;;
54157;SDS011;40065;49.894;10.358;2023-08-01T22:18:24;4.88;;;1.98;;
54157;SDS011;40065;49.894;10.358;2023-08-01T22:23:26;3.15;;;1.48;;
54157;SDS011;40065;49.894;10.358;2023-08-01T22:28:31;3.40;;;1.83;;
54157;SDS011;40065;49.894;10.358;2023-08-01T22:33:34;4.13;;;1.77;;
54157;SDS011;40065;49.894;10.358;2023-08-01T22:38:36;5.57;;;2.10;;
54157;SDS011;40065;49.894;10.358;2023-08-01T22:43:38;4.40;;;2.00;;
54157;SDS011;40065;49.894;10.358;2023-08-01T22:48:40;4.53;;;2.00;;
54157;SDS011;40065;49.894;10.358;2023-08-01T22:53:45;3.92;;;2.20;;
54157;SDS011;40065;49.894;10.358;2023-08-01T22:58:49;4.45;;;2.53;;
54157;SDS011;40065;49.894;10.358;2023-08-01T23:03:51;4.05;;;2.33;;
54157;SDS011;40065;49.894;10.358;2023-08-01T23:08:54;2.90;;;2.00;;
54157;SDS011;40065;49.894;10.358;2023-08-01T23:13:58;4.38;;;2.10;;
54157;SDS011;40065;49.894;10.358;2023-08-01T23:19:00;4.45;;;2.05;;
54157;SDS011;40065;49.894;10.358;2023-08-01T23:24:02;8.02;;;2.15;;
54157;SDS011;40065;49.894;10.358;2023-08-01T23:29:05;6.45;;;2.22;;
54157;SDS011;40065;49.894;10.358;2023-08-01T23:34:07;6.70;;;2.33;;
54157;SDS011;40065;49.894;10.358;2023-08-01T23:39:09;5.15;;;2.20;;
54157;SDS011;40065;49.894;10.358;2023-08-01T23:44:11;5.45;;;2.15;;
54157;SDS011;40065;49.894;10.358;2023-08-01T23:49:13;6.50;;;2.28;;
54157;SDS011;40065;49.894;10.358;2023-08-01T23:54:14;4.50;;;1.67;;
54157;SDS011;40065;49.894;10.358;2023-08-01T23:59:16;10.43;;;2.13;;
